Главная страница
METAR-TAF:

METAR-TAF

Аэропорты :

Мияко, Япония

широта: 24-47N, долгота: 125-17E, высота над уровнем моря: 40 м

Текущие метеонаблюдения

Эта сводка был подготовлена 1 час и 21 минут назад, в 11:00 UTC
Ветер 8 Узел от южный-юго-западный
Температура 26°C
Влажность 94%
Давление 1011 hPa
Видимость 10 км и более
небольшая облачность на высоте 1100 фута

METAR: ROMY 211100Z 20008KT 9999 FEW011 26/25 Q1011

Время: 21:21 (12:21 UTC)


TAF: отсутствует

Метеонаблюдения и прогнозы для более 4000 аэропортов (сводки METAR и TAF).

Имеющиеся станции представлены на карте желтыми и красными точками.

Чтобы увидеть название станции, наведите на нее мышь.

Затем щелкните, чтобы увидеть метеонаблюдения и метеопрогнозы.

Управление картой: чтобы увеличить масштаб, щелкните зеленые кнопки с черным крестиком; чтобы уменьшить масштаб, щелкните зеленую кнопку с тире; для просмотра соседних карт щелкайте зеленые стрелки.


METAR-TAF: